createdAt,value
2023-04-11T00:00:44.973Z,36.05
2023-04-11T00:05:49.442Z,35.60
2023-04-11T00:10:52.317Z,35.33
2023-04-11T00:15:55.900Z,36.03
2023-04-11T00:21:00.174Z,36.35
2023-04-11T00:26:03.898Z,35.78
2023-04-11T00:31:07.375Z,35.60
2023-04-11T00:36:18.852Z,35.63
2023-04-11T00:41:21.828Z,35.83
2023-04-11T00:46:25.441Z,36.00
2023-04-11T00:51:29.895Z,35.78
2023-04-11T00:56:33.072Z,35.58
2023-04-11T01:01:36.446Z,35.65
2023-04-11T01:06:41.703Z,35.75
2023-04-11T01:11:44.664Z,35.58
2023-04-11T01:16:48.545Z,35.30
2023-04-11T01:21:54.328Z,35.58
2023-04-11T01:26:58.715Z,35.03
2023-04-11T01:32:01.554Z,33.92
2023-04-11T01:37:04.730Z,34.40
2023-04-11T01:42:11.091Z,33.88
2023-04-11T01:47:13.977Z,33.88
2023-04-11T01:52:16.825Z,34.08
2023-04-11T01:57:21.035Z,34.08
2023-04-11T02:02:25.983Z,34.03
2023-04-11T02:07:28.963Z,34.30
2023-04-11T02:12:33.164Z,34.38
2023-04-11T02:17:36.836Z,34.60
2023-04-11T02:22:39.947Z,34.95
2023-04-11T02:27:44.873Z,34.58
2023-04-11T02:32:49.330Z,34.40
2023-04-11T02:37:52.340Z,34.75
2023-04-11T02:42:56.538Z,34.05
2023-04-11T02:48:00.150Z,33.88
2023-04-11T02:53:03.151Z,34.50
2023-04-11T02:58:08.452Z,33.80
2023-04-11T03:03:12.684Z,33.65
2023-04-11T03:08:19.867Z,34.10
2023-04-11T03:13:29.079Z,33.80
2023-04-11T03:18:32.271Z,34.08
2023-04-11T03:23:39.328Z,34.13
2023-04-11T03:28:43.628Z,34.38
2023-04-11T03:33:47.821Z,34.13
2023-04-11T03:38:50.755Z,34.03
2023-04-11T03:43:55.864Z,33.75
2023-04-11T03:48:58.987Z,33.53
2023-04-11T03:54:02.370Z,33.17
2023-04-11T03:59:11.469Z,33.20
2023-04-11T04:04:25.700Z,33.38
2023-04-11T04:09:41.102Z,33.88
2023-04-11T04:14:46.565Z,33.65
2023-04-11T04:19:52.519Z,33.40
2023-04-11T04:24:58.283Z,33.60
2023-04-11T04:30:10.468Z,33.58
2023-04-11T04:35:28.690Z,33.88
2023-04-11T04:40:40.001Z,34.28
2023-04-11T04:45:45.275Z,33.55
2023-04-11T04:50:52.318Z,33.58
2023-04-11T04:55:55.926Z,33.40
2023-04-11T05:01:02.503Z,33.58
2023-04-11T05:06:07.522Z,33.50
2023-04-11T05:11:11.265Z,34.80
2023-04-11T05:16:15.837Z,33.45
2023-04-11T05:21:19.268Z,33.65
2023-04-11T05:26:27.541Z,33.63
2023-04-11T05:31:32.050Z,33.30
2023-04-11T05:36:35.299Z,33.42
2023-04-11T05:41:38.247Z,33.45
2023-04-11T05:46:42.504Z,33.85
2023-04-11T05:51:45.354Z,32.95
2023-04-11T05:56:48.192Z,33.38
2023-04-11T06:01:52.471Z,33.63
2023-04-11T06:06:55.434Z,33.25
2023-04-11T06:11:58.427Z,33.28
2023-04-11T06:17:02.664Z,33.45
2023-04-11T06:22:06.766Z,33.60
2023-04-11T06:27:10.746Z,33.67
2023-04-11T06:32:15.104Z,33.35
2023-04-11T06:37:17.987Z,33.72
2023-04-11T06:42:21.204Z,33.58
2023-04-11T06:47:29.081Z,33.42
2023-04-11T06:52:32.059Z,33.72
2023-04-11T06:57:34.956Z,33.92
2023-04-11T07:02:40.236Z,34.53
2023-04-11T07:07:43.228Z,34.55
2023-04-11T07:12:47.120Z,33.40
2023-04-11T07:17:52.917Z,33.88
2023-04-11T07:22:56.669Z,34.20
2023-04-11T07:28:00.215Z,33.95
2023-04-11T07:33:04.577Z,34.17
2023-04-11T07:38:09.421Z,34.15
2023-04-11T07:43:12.335Z,34.08
2023-04-11T07:48:16.562Z,33.97
2023-04-11T07:53:19.437Z,35.67
2023-04-11T07:58:22.415Z,34.28
2023-04-11T08:03:28.214Z,34.53
2023-04-11T08:08:31.328Z,35.17
2023-04-11T08:13:36.522Z,34.75
2023-04-11T08:18:42.440Z,34.45
2023-04-11T08:23:47.527Z,34.13
2023-04-11T08:28:50.672Z,34.45
2023-04-11T08:33:56.182Z,34.50
2023-04-11T08:39:00.938Z,34.80
2023-04-11T08:44:03.834Z,34.45
2023-04-11T08:49:08.144Z,34.15
2023-04-11T08:54:12.498Z,34.80
2023-04-11T08:59:15.772Z,34.17
2023-04-11T09:04:19.977Z,34.05
2023-04-11T09:09:30.577Z,34.28
2023-04-11T09:14:33.762Z,34.70
2023-04-11T09:19:37.976Z,33.88
2023-04-11T09:24:42.873Z,35.45
2023-04-11T09:29:47.446Z,34.60
2023-04-11T09:34:51.680Z,34.38
2023-04-11T09:40:00.077Z,35.00
2023-04-11T09:45:03.899Z,34.90
2023-04-11T09:50:14.945Z,34.67
2023-04-11T09:55:21.037Z,34.80
2023-04-11T10:00:29.046Z,34.30
2023-04-11T10:05:34.851Z,34.20
2023-04-11T10:10:38.090Z,35.00
2023-04-11T10:16:09.007Z,34.42
2023-04-11T10:21:42.745Z,35.10
2023-04-11T10:26:53.025Z,34.55
2023-04-11T10:32:13.688Z,34.55
2023-04-11T10:37:16.615Z,34.70
2023-04-11T10:42:31.452Z,34.47
2023-04-11T10:47:34.423Z,34.55
2023-04-11T10:52:39.093Z,34.67
2023-04-11T10:58:06.886Z,34.75
2023-04-11T11:03:15.510Z,35.13
2023-04-11T11:08:30.884Z,34.85
2023-04-11T11:13:42.670Z,34.85
2023-04-11T11:18:47.786Z,34.75
2023-04-11T11:23:58.656Z,34.90
2023-04-11T11:29:03.551Z,35.10
2023-04-11T11:34:22.219Z,35.25
2023-04-11T11:39:30.993Z,35.15
2023-04-11T11:44:35.292Z,35.33
2023-04-11T11:49:48.760Z,35.38
2023-04-11T11:54:52.597Z,35.80
2023-04-11T11:59:57.277Z,35.33
2023-04-11T12:05:01.222Z,35.47
2023-04-11T12:10:07.931Z,35.20
2023-04-11T12:15:13.281Z,34.90
2023-04-11T12:20:16.727Z,34.83
2023-04-11T12:25:19.945Z,34.78
2023-04-11T12:30:26.102Z,35.45
2023-04-11T12:35:30.554Z,35.42
2023-04-11T12:40:33.649Z,35.20
2023-04-11T12:45:37.979Z,35.30
2023-04-11T12:50:41.969Z,35.92
2023-04-11T12:55:44.981Z,34.88
2023-04-11T13:00:49.256Z,34.90
2023-04-11T13:05:52.144Z,34.88
2023-04-11T13:10:56.001Z,35.55
2023-04-11T13:16:00.491Z,35.47
2023-04-11T13:21:03.395Z,34.92
2023-04-11T13:26:07.136Z,35.15
2023-04-11T13:31:11.469Z,35.97
2023-04-11T13:36:14.392Z,36.10
2023-04-11T13:41:17.412Z,35.55
2023-04-11T13:46:23.150Z,35.70
2023-04-11T13:51:27.216Z,35.35
2023-04-11T13:56:30.214Z,34.75
2023-04-11T14:01:38.439Z,35.30
2023-04-11T14:06:43.413Z,35.88
2023-04-11T14:11:48.884Z,35.53
2023-04-11T14:16:53.845Z,35.28
2023-04-11T14:21:57.834Z,35.42
2023-04-11T14:27:03.111Z,35.72
2023-04-11T14:32:07.880Z,34.92
2023-04-11T14:37:10.865Z,34.78
2023-04-11T14:42:13.773Z,35.08
2023-04-11T14:47:17.980Z,35.50
2023-04-11T14:52:21.096Z,35.50
2023-04-11T14:57:24.266Z,36.05
2023-04-11T15:02:30.011Z,35.17
2023-04-11T15:07:34.112Z,35.45
2023-04-11T15:12:36.996Z,35.47
2023-04-11T15:17:43.012Z,35.63
2023-04-11T15:22:47.325Z,35.25
2023-04-11T15:27:51.719Z,35.63
2023-04-11T15:32:55.981Z,35.15
2023-04-11T15:38:00.986Z,35.25
2023-04-11T15:43:04.734Z,36.28
2023-04-11T15:48:09.302Z,35.33
2023-04-11T15:53:12.842Z,34.75
2023-04-11T15:58:16.991Z,35.58
2023-04-11T16:03:21.384Z,36.35
2023-04-11T16:08:24.440Z,35.92
2023-04-11T16:13:28.327Z,35.33
2023-04-11T16:18:32.566Z,35.63
2023-04-11T16:23:56.164Z,35.80
2023-04-11T16:28:59.789Z,35.38
2023-04-11T16:34:15.428Z,36.33
2023-04-11T16:39:18.692Z,35.53
2023-04-11T16:44:26.567Z,35.83
2023-04-11T16:49:32.281Z,35.33
2023-04-11T16:54:37.625Z,36.10
2023-04-11T16:59:45.183Z,35.33
2023-04-11T17:04:50.607Z,35.97
2023-04-11T17:09:54.144Z,35.38
2023-04-11T17:15:02.454Z,35.58
2023-04-11T17:20:09.798Z,35.92
2023-04-11T17:25:29.431Z,35.65
2023-04-11T17:30:33.243Z,35.83
2023-04-11T17:35:37.772Z,36.20
2023-04-11T17:40:41.313Z,36.25
2023-04-11T17:45:50.011Z,35.80
2023-04-11T17:50:56.697Z,35.63
2023-04-11T17:56:30.239Z,34.95
2023-04-11T18:01:33.351Z,35.50
2023-04-11T18:06:38.033Z,35.97
2023-04-11T18:11:48.529Z,36.90
2023-04-11T18:17:20.526Z,35.20
2023-04-11T18:22:25.157Z,35.35
2023-04-11T18:27:28.212Z,36.17
2023-04-11T18:32:40.791Z,35.53
2023-04-11T18:37:49.727Z,36.22
2023-04-11T18:42:58.310Z,36.55
2023-04-11T18:48:02.104Z,35.47
2023-04-11T18:53:13.839Z,35.92
2023-04-11T18:58:31.973Z,35.63
2023-04-11T19:03:57.049Z,35.75
2023-04-11T19:09:06.328Z,35.45
2023-04-11T19:14:10.330Z,35.83
2023-04-11T19:19:13.843Z,35.95
2023-04-11T19:24:23.068Z,36.65
2023-04-11T19:29:26.188Z,35.10
2023-04-11T19:34:33.886Z,34.60
2023-04-11T19:39:41.504Z,34.63
2023-04-11T19:44:49.342Z,34.65
2023-04-11T19:49:56.917Z,34.83
2023-04-11T19:55:05.932Z,35.03
2023-04-11T20:00:38.212Z,39.17
2023-04-11T20:05:42.957Z,35.10
2023-04-11T20:10:58.451Z,34.85
2023-04-11T20:16:11.913Z,34.78
2023-04-11T20:21:22.050Z,34.95
2023-04-11T20:26:57.396Z,34.65
2023-04-11T20:32:11.927Z,34.88
2023-04-11T20:37:17.056Z,34.70
2023-04-11T20:42:23.171Z,34.53
2023-04-11T20:47:29.958Z,34.60
2023-04-11T20:52:37.977Z,34.95
2023-04-11T20:57:44.873Z,35.10
2023-04-11T21:02:50.963Z,34.15
2023-04-11T21:07:55.018Z,34.50
2023-04-11T21:12:58.089Z,34.25
2023-04-11T21:18:03.498Z,34.42
2023-04-11T21:23:07.484Z,34.45
2023-04-11T21:28:10.551Z,34.55
2023-04-11T21:33:15.097Z,34.00
2023-04-11T21:38:18.181Z,34.22
2023-04-11T21:43:21.195Z,34.30
2023-04-11T21:48:25.679Z,34.08
2023-04-11T21:53:28.805Z,34.05
2023-04-11T21:58:32.016Z,34.55
2023-04-11T22:03:40.342Z,34.92
2023-04-11T22:08:50.202Z,34.83
2023-04-11T22:13:53.240Z,34.15
2023-04-11T22:18:58.441Z,33.65
2023-04-11T22:24:02.170Z,34.35
2023-04-11T22:29:06.516Z,34.70
2023-04-11T22:34:12.291Z,34.97
2023-04-11T22:39:15.384Z,34.42
2023-04-11T22:44:19.014Z,34.13
2023-04-11T22:49:25.446Z,34.17
2023-04-11T22:54:29.146Z,33.85
2023-04-11T22:59:32.119Z,33.92
2023-04-11T23:04:36.578Z,33.92
2023-04-11T23:09:39.513Z,33.60
2023-04-11T23:14:42.429Z,34.28
2023-04-11T23:19:47.188Z,33.85
2023-04-11T23:24:53.355Z,34.00
2023-04-11T23:29:57.827Z,34.25
2023-04-11T23:35:02.922Z,34.05
2023-04-11T23:40:13.972Z,33.88
2023-04-11T23:45:22.689Z,33.65
2023-04-11T23:50:35.459Z,33.90
2023-04-11T23:55:40.868Z,33.58
